Clarion, IA

10:08 PM CDT on October 22, 2014 (GMT -0500)
Iowa Falls Municipal | Change Station
CLOSE
Current Station
Airport
Location: Iowa Falls,
Elevation: 1138 ft
Nearby Weather Stations

Elev 1138 ft 42.47 °N, 93.27 °W | Updated 13 minutes ago

Partly Cloudy
Partly Cloudy
55 °F
Feels Like 55 °F
N
14
Wind Variable Wind from SSE

Today
High -- | Low -- °F
--% Chance of Precip.
Yesterday
High -- | Low -- °F
Precip. -- in
7:36 AM 6:21 PM
Waning Crescent, 1% visible
Pressure 30.11 in
Visibility 10.0 miles
Clouds Scattered Clouds 6000 ft
Mostly Cloudy 8500 ft
Dew Point 42 °F
Humidity 62%
Rainfall 0.00 in
Snow Depth Not available.
UV 0 out of 12
Pollen 1.50 out of 12
Air Quality Not available.
Flu Activity Sporadic
METAR KIFA 230255Z AUTO 15012KT 10SM SCT060 BKN085 13/06 A3011 RMK AO2 T01260055

More Conditions Fewer Conditions

Pressure 30.11 in
Visibility 10.0 miles
Clouds Scattered Clouds 6000 ft
Mostly Cloudy 8500 ft
Dew Point 42 °F
Humidity 62%
Rainfall 0.00 in
Snow Depth Not available.
UV 0 out of 12
Pollen 1.50 out of 12
Air Quality Not available.
Flu Activity Sporadic
METAR KIFA 230255Z AUTO 15012KT 10SM SCT060 BKN085 13/06 A3011 RMK AO2 T01260055

More Conditions Fewer Conditions

10-Day Weather Forecast

Almanac

Astronomy

Oct. 22, 2014 Rise Set
Actual Time 7:36 AM CDT 6:21 PM CDT
Civil Twilight 7:07 AM CDT 6:50 PM CDT
Nautical Twilight 6:34 AM CDT 7:23 PM CDT
Astronomical Twilight 6:02 AM CDT 7:55 PM CDT
Moon 6:16 AM CDT (10/22) 5:49 PM CDT (10/22)
Length of Visible Light 11h 42m
Length of Day
10h 44m
Tomorrow will be 2m 43s shorter.
Waning Crescent, 1% of the Moon is Illuminated
Today
Waning Crescent
Oct 23
New
Oct 30
First Quarter
Nov 6
Full
Nov 14
Last Quarter

Today's Extremes

State Highs State Lows

Community

WunderPhotos

Upload Photos

1,764,121 photos uploaded!

Nearby

Snow Depth

Station Depth Elevation
No new snow has been reported.

Earthquake Activity

City Distance Mag. Time & Date
No recent earthquake activity has been reported nearby.
Minimum magnitude displayed is 2.5.

Coastal Water Temperatures

Place Temperature
No Stations Reporting

Nearby Weather Stations